Time;durP1;ratioP1;P1;durP2;ratioP2;P2;SDS_P1;SDS_P2;PMS_P1;PMS_P2;Temp;Humidity;BMP_temperature;BMP_pressure;BME280_temperature;BME280_humidity;BME280_pressure;Samples;Min_cycle;Max_cycle;Signal;HPM_P1;HPM_P2
2022/09/24 00:01:32;;;;;;;9.40;5.38;;;13.90;77.50;;;;;;4976851;28;20073;-62
2022/09/24 00:04:03;;;;;;;9.77;6.10;;;13.90;77.70;;;;;;4975680;28;20035;-62
2022/09/24 00:06:33;;;;;;;7.00;5.22;;;13.90;77.90;;;;;;4974230;28;20062;-61
2022/09/24 00:08:59;;;;;;;6.20;5.35;;;13.90;78.00;;;;;;4975507;28;20403;-62
2022/09/24 00:11:27;;;;;;;6.55;5.45;;;13.90;78.00;;;;;;4973137;28;20047;-62
2022/09/24 00:13:54;;;;;;;9.40;5.28;;;13.80;77.90;;;;;;4974720;28;20039;-62
2022/09/24 00:16:22;;;;;;;7.40;5.40;;;13.80;77.90;;;;;;4974331;28;20034;-60
2022/09/24 00:18:48;;;;;;;6.53;5.35;;;13.80;77.90;;;;;;4974364;28;20034;-62
2022/09/24 00:21:14;;;;;;;8.77;5.80;;;13.90;77.80;;;;;;4977233;28;20468;-63
2022/09/24 00:23:40;;;;;;;8.18;5.50;;;13.80;77.60;;;;;;4976586;28;20046;-62
2022/09/24 00:28:51;;;;;;;6.33;5.30;;;13.90;77.60;;;;;;4979761;28;20466;-62
2022/09/24 00:31:16;;;;;;;6.72;5.68;;;13.90;77.40;;;;;;4996759;28;20041;-63
2022/09/24 00:33:42;;;;;;;10.43;6.78;;;13.80;77.30;;;;;;4997571;28;20038;-63
2022/09/24 00:36:08;;;;;;;9.45;7.10;;;13.80;77.30;;;;;;4991817;28;20449;-63
2022/09/24 00:38:34;;;;;;;8.70;6.28;;;13.80;77.60;;;;;;4994871;28;20031;-62
2022/09/24 00:41:01;;;;;;;11.88;7.45;;;13.80;77.60;;;;;;4995332;28;20034;-62
2022/09/24 00:43:32;;;;;;;9.85;7.80;;;13.80;77.70;;;;;;4993775;28;20532;-62
2022/09/24 00:46:26;;;;;;;7.88;6.57;;;13.80;77.90;;;;;;4988744;28;20510;-63
2022/09/24 00:49:13;;;;;;;7.70;5.38;;;13.80;78.30;;;;;;4994180;28;20057;-61
2022/09/24 00:51:40;;;;;;;6.72;4.88;;;13.80;77.80;;;;;;4994156;28;20041;-61
2022/09/24 00:54:11;;;;;;;6.80;5.05;;;13.80;77.80;;;;;;4996977;28;20121;-63
2022/09/24 00:56:39;;;;;;;5.47;4.45;;;13.80;78.00;;;;;;4995785;28;20133;-62
2022/09/24 00:59:08;;;;;;;6.38;5.05;;;13.80;77.80;;;;;;4993126;28;20390;-60
2022/09/24 01:01:33;;;;;;;7.75;5.20;;;13.80;77.90;;;;;;4994682;28;20034;-63
2022/09/24 01:04:01;;;;;;;7.00;4.80;;;13.80;77.80;;;;;;4994472;28;20480;-63
2022/09/24 01:06:26;;;;;;;7.95;4.97;;;13.80;77.80;;;;;;4994848;28;20034;-63
2022/09/24 01:08:54;;;;;;;7.32;4.70;;;13.80;77.90;;;;;;4995706;28;20038;-62
2022/09/24 01:11:39;;;;;;;8.45;4.93;;;13.70;78.00;;;;;;4994595;28;20034;-63
2022/09/24 01:14:22;;;;;;;6.60;5.33;;;13.70;78.20;;;;;;4993144;28;20049;-62
2022/09/24 01:17:16;;;;;;;5.78;5.15;;;13.60;78.40;;;;;;4990856;28;20723;-62
2022/09/24 01:19:54;;;;;;;8.18;5.18;;;13.60;79.50;;;;;;4992694;28;20173;-62
2022/09/24 01:22:57;;;;;;;7.13;5.30;;;13.60;78.90;;;;;;4996124;28;20441;-63
2022/09/24 01:25:25;;;;;;;8.82;6.80;;;13.50;79.40;;;;;;4991528;28;20485;-61
2022/09/24 01:27:59;;;;;;;12.30;8.90;;;13.50;78.70;;;;;;4993857;28;20037;-62
2022/09/24 01:30:31;;;;;;;16.15;10.45;;;13.50;78.90;;;;;;4992399;28;20038;-61
2022/09/24 01:33:07;;;;;;;11.32;8.13;;;13.50;78.90;;;;;;4995191;28;20034;-62
2022/09/24 01:35:42;;;;;;;9.57;6.45;;;13.50;79.40;;;;;;4994239;28;20038;-63
2022/09/24 01:38:13;;;;;;;8.52;6.45;;;13.60;79.40;;;;;;4994324;28;20034;-63
2022/09/24 01:40:39;;;;;;;7.95;6.00;;;13.60;79.30;;;;;;4991931;28;20053;-61
2022/09/24 01:43:07;;;;;;;8.73;5.88;;;13.50;79.00;;;;;;4994437;28;20042;-62
2022/09/24 01:45:37;;;;;;;6.70;5.40;;;13.60;79.10;;;;;;4992485;28;20037;-62
2022/09/24 01:48:04;;;;;;;6.53;5.50;;;13.60;79.10;;;;;;4993788;28;20042;-63
2022/09/24 01:50:33;;;;;;;6.38;5.72;;;13.60;79.20;;;;;;4998849;28;20042;-62
2022/09/24 01:53:03;;;;;;;6.85;5.65;;;13.60;79.30;;;;;;4998066;28;20048;-62
2022/09/24 01:55:34;;;;;;;7.07;5.53;;;13.60;79.40;;;;;;4999511;28;20037;-63
2022/09/24 01:58:32;;;;;;;6.90;5.20;;;13.60;79.50;;;;;;4997777;28;20050;-64
2022/09/24 02:01:06;;;;;;;6.90;5.65;;;13.60;80.30;;;;;;5008479;28;20030;-62
2022/09/24 02:03:40;;;;;;;7.03;5.97;;;13.60;79.60;;;;;;4996852;28;20490;-63
2022/09/24 02:06:16;;;;;;;8.90;6.50;;;13.70;79.60;;;;;;4997579;28;20034;-63
2022/09/24 02:08:47;;;;;;;11.23;6.78;;;13.60;79.80;;;;;;4998438;28;20133;-61
2022/09/24 02:11:22;;;;;;;9.88;6.60;;;13.60;79.60;;;;;;4996067;28;20034;-62
2022/09/24 02:14:07;;;;;;;8.10;5.80;;;13.60;79.80;;;;;;4997383;28;20037;-62
2022/09/24 02:16:37;;;;;;;7.18;5.88;;;13.60;80.00;;;;;;4994810;28;20030;-62
2022/09/24 02:19:06;;;;;;;8.45;6.68;;;13.60;79.40;;;;;;4996223;28;20030;-62
2022/09/24 02:21:33;;;;;;;10.10;7.07;;;13.70;79.60;;;;;;4997151;28;20557;-62
2022/09/24 02:24:06;;;;;;;8.15;6.57;;;13.70;79.50;;;;;;4998634;28;20757;-63
2022/09/24 02:26:32;;;;;;;10.77;6.43;;;13.60;79.70;;;;;;4996629;28;20064;-63
2022/09/24 02:28:58;;;;;;;8.93;7.05;;;13.60;79.60;;;;;;4995553;28;20042;-60
2022/09/24 02:31:30;;;;;;;15.90;9.05;;;13.60;79.60;;;;;;4999103;28;20034;-62
2022/09/24 02:36:43;;;;;;;8.98;5.97;;;13.60;80.00;;;;;;4995008;28;20781;-63
2022/09/24 02:39:08;;;;;;;8.70;6.25;;;13.50;79.90;;;;;;4990964;28;20042;-61
2022/09/24 02:41:35;;;;;;;8.93;6.60;;;13.60;80.00;;;;;;4986495;28;20041;-62
2022/09/24 02:44:01;;;;;;;8.43;6.82;;;13.60;80.00;;;;;;4997468;28;20045;-63
2022/09/24 02:46:27;;;;;;;10.88;7.68;;;13.60;80.00;;;;;;4993434;28;21389;-62
2022/09/24 02:48:53;;;;;;;10.93;8.07;;;13.70;80.10;;;;;;4995161;28;20069;-62
2022/09/24 02:51:18;;;;;;;10.88;7.93;;;13.60;79.90;;;;;;4997321;28;20057;-62
2022/09/24 02:53:44;;;;;;;11.77;8.40;;;13.60;79.80;;;;;;4995496;28;20042;-62
2022/09/24 02:56:10;;;;;;;12.90;7.97;;;13.70;79.80;;;;;;4982339;28;20113;-61
2022/09/24 02:58:38;;;;;;;10.25;7.70;;;13.70;79.60;;;;;;4998124;28;20038;-62
2022/09/24 03:01:04;;;;;;;10.75;7.45;;;13.70;79.60;;;;;;4999805;28;20123;-60
2022/09/24 03:03:30;;;;;;;10.10;7.20;;;13.80;79.60;;;;;;5000411;28;20365;-62
2022/09/24 03:05:56;;;;;;;9.93;7.18;;;13.80;79.60;;;;;;5001033;28;20033;-62
2022/09/24 03:08:26;;;;;;;11.38;7.13;;;13.70;79.40;;;;;;5000152;28;20080;-63
2022/09/24 03:10:52;;;;;;;9.35;7.05;;;13.80;79.60;;;;;;4997733;28;20321;-62
2022/09/24 03:13:18;;;;;;;7.90;6.75;;;13.70;79.60;;;;;;4998007;28;20129;-62
2022/09/24 03:15:45;;;;;;;9.02;6.50;;;13.70;79.70;;;;;;4998639;28;20121;-62
2022/09/24 03:18:10;;;;;;;7.38;6.60;;;13.70;79.80;;;;;;4998324;28;20034;-62
2022/09/24 03:20:36;;;;;;;8.82;7.10;;;13.70;79.90;;;;;;5000246;28;20061;-62
2022/09/24 03:23:01;;;;;;;7.95;6.20;;;13.70;80.00;;;;;;4999232;28;20058;-62
2022/09/24 03:25:27;;;;;;;7.63;6.30;;;13.70;80.10;;;;;;4996939;28;20494;-62
2022/09/24 03:27:52;;;;;;;8.98;6.35;;;13.70;80.30;;;;;;4998460;28;20041;-63
2022/09/24 03:33:02;;;;;;;9.35;6.80;;;13.80;80.20;;;;;;4997936;28;20165;-63
2022/09/24 03:35:28;;;;;;;7.30;5.97;;;13.80;80.20;;;;;;4997599;28;20129;-62
2022/09/24 03:37:54;;;;;;;8.13;6.60;;;13.70;80.30;;;;;;4999023;28;20038;-63
2022/09/24 03:40:20;;;;;;;6.93;6.13;;;13.80;80.40;;;;;;4983156;28;20040;-61
2022/09/24 03:42:45;;;;;;;8.10;6.75;;;13.80;80.30;;;;;;4996012;28;20042;-63
2022/09/24 03:45:11;;;;;;;17.40;10.50;;;13.80;80.30;;;;;;4998454;28;20026;-63
2022/09/24 03:47:37;;;;;;;20.60;11.13;;;13.80;80.30;;;;;;4998880;28;20041;-63
2022/09/24 03:50:03;;;;;;;16.23;11.07;;;13.80;80.30;;;;;;4998405;28;20121;-61
2022/09/24 03:52:29;;;;;;;17.70;11.05;;;13.80;80.20;;;;;;4980510;28;20030;-61
2022/09/24 03:54:54;;;;;;;14.18;9.57;;;13.90;80.20;;;;;;4979347;28;20122;-62
2022/09/24 03:57:20;;;;;;;12.48;8.18;;;13.90;80.30;;;;;;4977515;28;21362;-63
2022/09/24 03:59:46;;;;;;;10.50;7.30;;;13.90;80.30;;;;;;4975971;28;20045;-62
2022/09/24 04:02:12;;;;;;;9.15;7.45;;;13.90;80.10;;;;;;4975418;28;20042;-61
2022/09/24 04:04:38;;;;;;;8.75;7.10;;;13.90;80.10;;;;;;4974581;28;20069;-63
2022/09/24 04:07:04;;;;;;;11.52;7.78;;;13.90;80.10;;;;;;4976972;28;20113;-62
2022/09/24 04:09:29;;;;;;;8.90;8.00;;;13.90;80.20;;;;;;4977291;28;20035;-63
2022/09/24 04:11:55;;;;;;;9.25;7.88;;;14.00;80.50;;;;;;4972089;28;20038;-62
2022/09/24 04:14:21;;;;;;;9.90;7.80;;;14.00;80.50;;;;;;4978865;28;20108;-62
2022/09/24 04:16:46;;;;;;;10.88;8.50;;;14.00;80.50;;;;;;4972753;28;20252;-62
2022/09/24 04:19:14;;;;;;;11.40;8.55;;;14.00;80.60;;;;;;4984728;28;20092;-62
2022/09/24 04:21:44;;;;;;;12.60;8.35;;;14.00;80.70;;;;;;4994511;28;20045;-62
2022/09/24 04:24:10;;;;;;;9.90;8.18;;;14.00;80.80;;;;;;4996308;28;20422;-62
2022/09/24 04:26:36;;;;;;;10.98;8.13;;;14.00;80.90;;;;;;4993642;28;20395;-63
2022/09/24 04:29:02;;;;;;;10.10;8.23;;;14.00;81.00;;;;;;4997511;28;20044;-62
2022/09/24 04:31:27;;;;;;;17.80;13.00;;;14.00;81.00;;;;;;4990887;28;20045;-64
2022/09/24 04:33:53;;;;;;;14.50;10.48;;;14.00;80.90;;;;;;4992887;28;20061;-62
2022/09/24 04:36:19;;;;;;;16.77;11.75;;;14.00;81.00;;;;;;4994445;28;20490;-63
2022/09/24 04:38:45;;;;;;;12.98;9.75;;;14.00;81.00;;;;;;4994498;28;20429;-63
2022/09/24 04:41:12;;;;;;;9.07;7.20;;;14.00;81.00;;;;;;4996697;28;20038;-62
2022/09/24 04:43:38;;;;;;;8.98;6.47;;;14.00;80.80;;;;;;4994046;28;20049;-62
2022/09/24 04:46:04;;;;;;;7.60;6.30;;;14.00;80.70;;;;;;4994371;28;20038;-60
2022/09/24 04:48:30;;;;;;;6.68;5.97;;;14.00;80.70;;;;;;4994612;28;20073;-63
2022/09/24 04:50:56;;;;;;;8.70;7.03;;;14.00;80.60;;;;;;4993051;28;20120;-62
2022/09/24 04:53:22;;;;;;;11.85;7.47;;;14.00;80.70;;;;;;4993804;28;20148;-61
2022/09/24 04:55:48;;;;;;;11.20;8.23;;;14.00;80.60;;;;;;4993450;28;20034;-59
2022/09/24 04:58:14;;;;;;;10.13;8.95;;;14.10;80.60;;;;;;4993579;28;20069;-61
2022/09/24 05:00:41;;;;;;;10.45;8.32;;;14.10;80.60;;;;;;4991792;28;20026;-61
2022/09/24 05:03:06;;;;;;;9.63;7.97;;;14.10;80.60;;;;;;4995822;28;20033;-62
2022/09/24 05:05:33;;;;;;;12.32;8.00;;;14.10;80.50;;;;;;4992736;28;20432;-63
2022/09/24 05:08:00;;;;;;;10.25;8.05;;;14.10;80.50;;;;;;4994447;28;20096;-63
2022/09/24 05:10:27;;;;;;;11.98;8.65;;;14.10;80.50;;;;;;4993838;28;20030;-61
2022/09/24 05:12:53;;;;;;;11.65;7.95;;;14.00;80.50;;;;;;4993596;28;20557;-62
2022/09/24 05:15:19;;;;;;;10.88;7.88;;;14.10;80.60;;;;;;4994653;28;20038;-61
2022/09/24 05:17:45;;;;;;;8.73;7.80;;;14.00;80.60;;;;;;4995418;28;20092;-61
2022/09/24 05:20:11;;;;;;;9.90;8.15;;;14.00;80.80;;;;;;4993607;28;20421;-63
2022/09/24 05:22:41;;;;;;;11.20;8.32;;;14.00;80.90;;;;;;4992910;28;20034;-62
2022/09/24 05:25:06;;;;;;;11.50;9.55;;;14.00;81.20;;;;;;4991829;28;20073;-62
2022/09/24 05:27:32;;;;;;;13.07;8.45;;;14.00;81.20;;;;;;4994824;28;20034;-61
2022/09/24 05:29:59;;;;;;;9.68;8.60;;;14.00;81.30;;;;;;4993774;28;20100;-60
2022/09/24 05:32:25;;;;;;;17.05;8.60;;;13.90;81.50;;;;;;4991399;28;20168;-62
2022/09/24 05:34:51;;;;;;;8.82;7.88;;;13.90;81.60;;;;;;4993111;28;20046;-62
2022/09/24 05:37:17;;;;;;;9.75;7.38;;;14.00;81.60;;;;;;4994304;28;20540;-63
2022/09/24 05:39:42;;;;;;;11.48;7.97;;;14.00;81.60;;;;;;4991844;28;20034;-62
2022/09/24 05:42:14;;;;;;;10.38;9.00;;;14.00;81.60;;;;;;4993154;28;20089;-62
2022/09/24 05:44:42;;;;;;;9.27;8.35;;;14.00;81.70;;;;;;4993667;28;20046;-61
2022/09/24 05:47:08;;;;;;;9.73;8.73;;;14.00;81.50;;;;;;4994405;28;20402;-62
2022/09/24 05:49:34;;;;;;;10.02;8.90;;;14.00;81.60;;;;;;4992852;28;20050;-61
2022/09/24 05:52:00;;;;;;;9.90;9.00;;;14.00;81.50;;;;;;4993107;28;20583;-61
2022/09/24 05:54:26;;;;;;;10.13;8.60;;;14.00;81.50;;;;;;4992470;28;20041;-62
2022/09/24 05:56:52;;;;;;;10.35;9.25;;;14.00;81.40;;;;;;4993030;28;20085;-62
2022/09/24 05:59:17;;;;;;;10.45;9.27;;;14.00;81.40;;;;;;4992620;28;20041;-62
2022/09/24 06:01:43;;;;;;;11.93;9.52;;;14.00;81.40;;;;;;4994311;28;20108;-62
2022/09/24 06:04:10;;;;;;;9.98;8.18;;;14.00;81.50;;;;;;4996233;28;20041;-62
2022/09/24 06:06:36;;;;;;;11.43;9.23;;;14.10;81.60;;;;;;4992772;28;20146;-60
2022/09/24 06:09:02;;;;;;;10.85;9.52;;;14.00;81.60;;;;;;4995558;28;20514;-62
2022/09/24 06:11:33;;;;;;;12.05;9.20;;;14.10;81.70;;;;;;4990860;28;20048;-63
2022/09/24 06:14:03;;;;;;;9.93;8.93;;;14.00;81.80;;;;;;4981342;28;20046;-63
2022/09/24 06:16:32;;;;;;;10.27;8.43;;;14.10;81.90;;;;;;4986101;28;20042;-63
2022/09/24 06:18:57;;;;;;;10.25;8.55;;;14.10;81.80;;;;;;4985805;28;20052;-62
2022/09/24 06:21:23;;;;;;;9.35;8.35;;;14.10;81.70;;;;;;4988526;28;20030;-62
2022/09/24 06:23:48;;;;;;;11.02;8.63;;;14.10;81.70;;;;;;4982793;28;20038;-63
2022/09/24 06:26:14;;;;;;;10.75;8.73;;;14.10;81.90;;;;;;4991405;28;20034;-62
2022/09/24 06:28:40;;;;;;;11.25;9.13;;;14.10;82.10;;;;;;4984811;28;20042;-62
2022/09/24 06:31:08;;;;;;;11.68;9.57;;;14.10;82.40;;;;;;4988491;28;20069;-62
2022/09/24 06:33:33;;;;;;;14.18;10.20;;;14.10;82.70;;;;;;4986316;28;20520;-63
2022/09/24 06:36:01;;;;;;;13.07;10.18;;;14.20;82.90;;;;;;4990250;28;20041;-61
2022/09/24 06:38:27;;;;;;;10.50;9.18;;;14.20;83.30;;;;;;4991868;28;20025;-60
2022/09/24 06:41:00;;;;;;;11.52;9.25;;;14.20;83.30;;;;;;4994559;28;20584;-61
2022/09/24 06:43:26;;;;;;;13.15;9.68;;;14.30;83.40;;;;;;4991205;28;20101;-61
2022/09/24 06:45:56;;;;;;;15.07;11.23;;;14.30;83.30;;;;;;4991839;28;20041;-62
2022/09/24 06:48:21;;;;;;;12.25;10.68;;;14.40;83.80;;;;;;4998117;28;20041;-62
2022/09/24 06:50:47;;;;;;;14.82;10.57;;;14.40;83.60;;;;;;4993044;28;20417;-61
2022/09/24 06:53:13;;;;;;;13.85;10.73;;;14.40;83.70;;;;;;4994010;28;20046;-61
2022/09/24 06:55:39;;;;;;;11.50;9.32;;;14.40;84.00;;;;;;4991231;28;20131;-61
2022/09/24 06:58:10;;;;;;;11.02;8.80;;;14.50;84.30;;;;;;4992212;28;21099;-59
2022/09/24 07:00:37;;;;;;;10.80;8.98;;;14.50;84.20;;;;;;4994948;28;20136;-61
2022/09/24 07:03:04;;;;;;;14.55;9.75;;;14.60;84.30;;;;;;5001567;28;20031;-60
2022/09/24 07:05:31;;;;;;;10.13;9.07;;;14.60;84.30;;;;;;4997839;28;20026;-60
2022/09/24 07:07:56;;;;;;;10.98;9.38;;;14.60;84.50;;;;;;5001576;28;20068;-61
2022/09/24 07:10:24;;;;;;;14.00;10.70;;;14.70;84.40;;;;;;4992082;28;20137;-61
2022/09/24 07:12:49;;;;;;;15.95;11.38;;;14.70;84.50;;;;;;4989892;28;20042;-61
2022/09/24 07:15:15;;;;;;;12.98;11.50;;;14.80;84.60;;;;;;4993491;28;20042;-59
2022/09/24 07:17:41;;;;;;;13.65;12.25;;;14.80;84.70;;;;;;4997216;28;20034;-58
2022/09/24 07:20:07;;;;;;;11.88;10.02;;;14.90;84.80;;;;;;4995507;28;20042;-61
2022/09/24 07:22:38;;;;;;;11.02;9.90;;;14.90;84.90;;;;;;4992305;28;20108;-61
2022/09/24 07:25:06;;;;;;;11.20;9.48;;;15.00;85.20;;;;;;4993835;28;20057;-61
2022/09/24 07:27:32;;;;;;;10.38;9.38;;;15.00;85.00;;;;;;4994418;28;20037;-61
2022/09/24 07:29:57;;;;;;;10.55;9.38;;;15.00;85.10;;;;;;4992623;28;20052;-58
2022/09/24 07:32:23;;;;;;;11.13;9.02;;;15.00;85.10;;;;;;4971309;28;20048;-60
2022/09/24 07:34:48;;;;;;;10.10;9.10;;;15.00;85.10;;;;;;4975603;28;20076;-59
2022/09/24 07:37:14;;;;;;;10.70;9.45;;;15.10;85.10;;;;;;4975947;28;20491;-60
2022/09/24 07:39:40;;;;;;;10.73;9.23;;;15.10;85.00;;;;;;4973172;28;20533;-59
2022/09/24 07:42:06;;;;;;;10.13;9.00;;;15.20;85.20;;;;;;4976650;28;20038;-60
2022/09/24 07:44:31;;;;;;;11.13;9.27;;;15.20;85.10;;;;;;4970600;28;20042;-59
2022/09/24 07:46:57;;;;;;;9.55;8.57;;;15.20;85.00;;;;;;4975906;28;20041;-57
2022/09/24 07:49:23;;;;;;;9.77;8.77;;;15.20;85.00;;;;;;4979681;28;20506;-60
2022/09/24 07:51:49;;;;;;;9.32;8.32;;;15.30;85.10;;;;;;4975023;28;20157;-59
2022/09/24 07:54:15;;;;;;;9.65;8.50;;;15.30;85.00;;;;;;4971630;28;20039;-62
2022/09/24 07:56:41;;;;;;;9.98;8.98;;;15.30;85.00;;;;;;4976335;28;20072;-62
2022/09/24 07:59:09;;;;;;;11.30;8.63;;;15.40;85.10;;;;;;4974097;28;20057;-61
2022/09/24 08:01:36;;;;;;;9.18;8.27;;;15.40;85.00;;;;;;4968881;28;20418;-60
2022/09/24 08:04:03;;;;;;;10.43;9.00;;;15.40;85.00;;;;;;4968619;28;20045;-61
2022/09/24 08:06:32;;;;;;;9.52;8.50;;;15.40;85.00;;;;;;4973740;28;20105;-59
2022/09/24 08:08:58;;;;;;;9.57;8.07;;;15.40;85.00;;;;;;4965990;28;20050;-60
2022/09/24 08:11:24;;;;;;;9.02;8.07;;;15.50;85.10;;;;;;4974150;28;20740;-60
2022/09/24 08:13:50;;;;;;;8.40;7.43;;;15.50;85.00;;;;;;4968391;28;20727;-60
2022/09/24 08:16:16;;;;;;;8.90;7.68;;;15.50;85.00;;;;;;4970317;28;20150;-60
2022/09/24 08:18:42;;;;;;;9.32;7.82;;;15.50;85.10;;;;;;4974175;28;20403;-60
2022/09/24 08:21:10;;;;;;;10.85;8.60;;;15.50;85.20;;;;;;4974745;28;20072;-60
2022/09/24 08:23:37;;;;;;;9.18;8.20;;;15.60;85.40;;;;;;4976337;28;20205;-60
2022/09/24 08:26:03;;;;;;;10.60;8.25;;;15.60;85.40;;;;;;4972844;28;20043;-61
2022/09/24 08:28:30;;;;;;;9.30;8.27;;;15.70;85.50;;;;;;4977434;28;20031;-60
2022/09/24 08:31:00;;;;;;;9.77;8.35;;;15.70;85.70;;;;;;4971086;28;20583;-61
2022/09/24 08:33:26;;;;;;;8.63;7.82;;;15.80;86.00;;;;;;4973783;28;20046;-61
2022/09/24 08:35:52;;;;;;;8.85;7.85;;;15.80;85.80;;;;;;4975470;28;20034;-61
2022/09/24 08:38:19;;;;;;;8.38;7.57;;;15.80;85.90;;;;;;4972861;28;20038;-60
2022/09/24 08:40:55;;;;;;;10.10;7.60;;;15.80;85.80;;;;;;4969990;28;20131;-60
2022/09/24 08:43:27;;;;;;;8.40;7.25;;;15.90;85.90;;;;;;4975239;28;20054;-61
2022/09/24 08:48:45;;;;;;;8.00;7.20;;;16.00;85.50;;;;;;4968336;28;20081;-60
2022/09/24 08:51:16;;;;;;;7.85;7.10;;;16.00;85.60;;;;;;4976748;28;20073;-60
2022/09/24 08:53:56;;;;;;;8.05;7.28;;;16.10;85.70;;;;;;4974122;28;20100;-60
2022/09/24 08:56:28;;;;;;;7.43;6.60;;;16.10;85.80;;;;;;4972866;28;20463;-60
2022/09/24 08:59:10;;;;;;;7.95;7.07;;;16.10;85.20;;;;;;4973030;28;20080;-61
2022/09/24 09:01:53;;;;;;;7.90;7.10;;;16.10;85.20;;;;;;4991687;28;20042;-59
2022/09/24 09:04:40;;;;;;;8.35;7.55;;;16.20;85.50;;;;;;4989997;28;20163;-59
2022/09/24 09:07:16;;;;;;;7.10;6.35;;;16.20;85.70;;;;;;4995146;28;20041;-60
2022/09/24 09:10:26;;;;;;;6.38;5.78;;;16.20;85.80;;;;;;4995730;28;20045;-60
2022/09/24 09:13:04;;;;;;;8.10;6.40;;;16.20;84.80;;;;;;4981901;28;20048;-60
2022/09/24 09:15:39;;;;;;;6.70;6.05;;;16.20;85.30;;;;;;4994190;28;20038;-59
2022/09/24 09:18:31;;;;;;;6.75;6.15;;;16.20;84.40;;;;;;4993037;28;20060;-60
2022/09/24 09:21:17;;;;;;;8.48;6.30;;;16.30;84.50;;;;;;4990671;28;21242;-59
2022/09/24 09:23:46;;;;;;;;;;;16.30;84.90;;;;;;4995148;28;20038;-59
2022/09/24 09:26:12;;;;;;;6.60;5.75;;;16.40;84.80;;;;;;4993936;28;19979;-59
2022/09/24 09:28:37;;;;;;;8.02;6.30;;;16.40;84.10;;;;;;4991189;28;20041;-59
2022/09/24 09:31:34;;;;;;;40.30;23.08;;;16.30;84.30;;;;;;4994399;28;20049;-59
2022/09/24 09:34:13;;;;;;;17.33;14.27;;;16.40;85.00;;;;;;4995779;28;20038;-60
2022/09/24 09:36:57;;;;;;;14.38;11.40;;;16.40;84.80;;;;;;4996817;28;20029;-61
2022/09/24 09:39:36;;;;;;;7.93;7.05;;;16.40;84.80;;;;;;4993244;28;20034;-59
2022/09/24 09:42:13;;;;;;;7.15;6.35;;;16.50;84.90;;;;;;4992611;28;20452;-59
2022/09/24 09:44:42;;;;;;;7.35;6.50;;;16.50;84.30;;;;;;4991060;28;20034;-59
2022/09/24 09:47:34;;;;;;;7.75;6.70;;;16.50;84.30;;;;;;4990241;28;20048;-58
2022/09/24 09:50:09;;;;;;;5.28;4.78;;;16.50;84.40;;;;;;4994003;28;20115;-59
2022/09/24 09:52:37;;;;;;;;;;;16.50;84.10;;;;;;4995974;28;20053;-59
2022/09/24 09:55:04;;;;;;;5.18;4.68;;;16.60;84.40;;;;;;4996650;28;19925;-58
2022/09/24 09:57:30;;;;;;;5.53;5.13;;;16.50;83.60;;;;;;4997739;28;20039;-60
2022/09/24 09:59:56;;;;;;;5.95;5.35;;;16.60;83.70;;;;;;4992464;28;20259;-60
2022/09/24 10:02:42;;;;;;;6.78;6.18;;;16.50;83.80;;;;;;4997198;28;20060;-57
2022/09/24 10:05:20;;;;;;;8.05;6.63;;;16.50;84.20;;;;;;4996840;28;20026;-61
2022/09/24 10:07:46;;;;;;;6.65;6.00;;;16.50;84.30;;;;;;4998347;28;20041;-61
2022/09/24 10:10:23;;;;;;;6.57;5.60;;;16.50;84.00;;;;;;4996565;28;20117;-61
2022/09/24 10:13:08;;;;;;;5.88;5.30;;;16.50;84.30;;;;;;4996815;28;20038;-61
2022/09/24 10:15:47;;;;;;;6.88;5.80;;;16.50;84.80;;;;;;5000822;28;20042;-61
2022/09/24 10:18:13;;;;;;;5.93;5.32;;;16.50;84.40;;;;;;5000227;28;20041;-61
2022/09/24 10:20:44;;;;;;;6.07;5.47;;;16.50;84.30;;;;;;5000874;28;20038;-61
2022/09/24 10:23:19;;;;;;;6.72;5.07;;;16.50;84.40;;;;;;5001414;28;20031;-61
2022/09/24 10:25:54;;;;;;;6.22;5.60;;;16.50;84.60;;;;;;5001343;28;20055;-59
2022/09/24 10:31:10;;;;;;;5.93;5.33;;;16.50;84.40;;;;;;5000445;28;20486;-58
2022/09/24 10:33:39;;;;;;;5.30;4.80;;;16.50;84.60;;;;;;5001825;28;20061;-60
2022/09/24 10:36:11;;;;;;;5.60;4.43;;;16.50;84.60;;;;;;4999896;28;20093;-59
2022/09/24 10:38:37;;;;;;;5.00;4.50;;;16.60;84.50;;;;;;5000702;28;20088;-60
2022/09/24 10:41:24;;;;;;;4.47;4.03;;;16.60;84.10;;;;;;5000168;28;20497;-59
2022/09/24 10:43:52;;;;;;;4.47;4.10;;;16.60;84.30;;;;;;4989004;28;20038;-59
2022/09/24 10:46:58;;;;;;;4.53;4.15;;;16.70;84.00;;;;;;4980239;28;20035;-60
2022/09/24 10:49:35;;;;;;;5.03;4.32;;;16.70;84.40;;;;;;4999255;28;20498;-59
2022/09/24 10:52:27;;;;;;;4.80;4.00;;;16.70;83.80;;;;;;4999335;28;20125;-58
2022/09/24 10:55:29;;;;;;;7.93;3.92;;;16.80;83.90;;;;;;4987599;28;20072;-60
2022/09/24 10:58:01;;;;;;;4.30;3.90;;;16.70;83.80;;;;;;5000322;28;20057;-59
2022/09/24 11:00:53;;;;;;;4.80;4.25;;;16.80;83.60;;;;;;4997665;28;20263;-59
2022/09/24 11:03:54;;;;;;;4.43;4.03;;;16.80;84.70;;;;;;5002420;28;20102;-60
2022/09/24 11:06:38;;;;;;;4.80;4.10;;;16.80;83.70;;;;;;4999516;28;20101;-60
2022/09/24 11:09:36;;;;;;;5.85;4.47;;;16.90;83.50;;;;;;5000553;28;20030;-61
2022/09/24 11:12:01;;;;;;;4.65;4.25;;;16.90;83.80;;;;;;5004820;28;20048;-59
2022/09/24 11:14:38;;;;;;;4.05;3.70;;;16.90;83.40;;;;;;5000822;28;20323;-60
2022/09/24 11:17:30;;;;;;;3.95;3.55;;;16.90;83.40;;;;;;4993042;28;20065;-60
2022/09/24 11:20:11;;;;;;;4.03;3.50;;;16.90;83.60;;;;;;4998059;28;20061;-61
2022/09/24 11:23:11;;;;;;;3.85;3.45;;;16.90;83.40;;;;;;4999699;28;20119;-59
2022/09/24 11:25:57;;;;;;;4.00;3.55;;;17.00;85.00;;;;;;4999337;28;20085;-61
2022/09/24 11:28:26;;;;;;;4.05;3.67;;;17.00;83.70;;;;;;5000276;28;20041;-61
2022/09/24 11:31:12;;;;;;;4.18;3.78;;;17.00;83.50;;;;;;4999549;28;20495;-60
2022/09/24 11:33:59;;;;;;;3.72;3.42;;;17.00;83.30;;;;;;4999495;28;20090;-61
2022/09/24 11:36:27;;;;;;;5.07;3.70;;;17.00;83.30;;;;;;4999106;28;20037;-60
2022/09/24 11:39:02;;;;;;;4.38;3.97;;;17.10;83.10;;;;;;4999682;28;20674;-59
2022/09/24 11:41:54;;;;;;;5.60;5.10;;;17.10;83.10;;;;;;4999616;28;20034;-60
2022/09/24 11:45:01;;;;;;;5.45;5.05;;;17.10;83.40;;;;;;4998903;28;20121;-60
2022/09/24 11:47:32;;;;;;;5.60;5.10;;;17.00;83.80;;;;;;4979145;28;20038;-59
2022/09/24 11:50:17;;;;;;;5.32;4.85;;;17.10;83.40;;;;;;4980727;28;20048;-59
2022/09/24 11:52:56;;;;;;;5.30;4.82;;;17.10;83.80;;;;;;4979207;28;20038;-59
2022/09/24 11:55:31;;;;;;;4.25;3.95;;;17.10;83.30;;;;;;4980054;28;20237;-60
2022/09/24 11:58:13;;;;;;;5.00;4.60;;;17.10;83.60;;;;;;4979622;28;20125;-55
2022/09/24 12:00:50;;;;;;;5.85;5.10;;;17.10;83.40;;;;;;4978802;28;20042;-58
2022/09/24 12:03:22;;;;;;;5.35;4.85;;;17.10;83.60;;;;;;4976809;28;20555;-60
2022/09/24 12:05:54;;;;;;;5.45;4.95;;;17.10;83.30;;;;;;4979681;28;20522;-60
2022/09/24 12:08:27;;;;;;;5.35;4.65;;;17.10;83.20;;;;;;4979903;28;20038;-60
2022/09/24 12:11:11;;;;;;;4.65;4.15;;;17.10;83.30;;;;;;4978063;28;20046;-60
2022/09/24 12:13:45;;;;;;;4.20;3.80;;;17.10;83.10;;;;;;4975577;28;20461;-60
2022/09/24 12:16:16;;;;;;;4.43;4.03;;;17.10;82.70;;;;;;4970927;28;20701;-60
2022/09/24 12:18:49;;;;;;;4.20;3.90;;;17.20;82.70;;;;;;4978240;28;20037;-59
2022/09/24 12:21:25;;;;;;;4.13;3.80;;;17.20;82.50;;;;;;4978165;28;20061;-60
2022/09/24 12:23:54;;;;;;;4.10;3.75;;;17.20;82.90;;;;;;4978159;28;20490;-59
2022/09/24 12:26:21;;;;;;;4.60;4.20;;;17.20;83.10;;;;;;4977996;28;20053;-60
2022/09/24 12:34:56;;;;;;;2.67;2.47;;;17.20;82.10;;;;;;4978167;28;20121;-58
2022/09/24 12:37:30;;;;;;;2.90;2.60;;;17.30;81.70;;;;;;4977067;28;20046;-59
2022/09/24 12:40:19;;;;;;;2.60;2.40;;;17.30;81.50;;;;;;4977073;28;20042;-60
2022/09/24 12:42:49;;;;;;;2.22;2.03;;;17.30;81.20;;;;;;4999106;28;20648;-60
2022/09/24 12:45:23;;;;;;;4.03;2.30;;;17.40;81.20;;;;;;4993862;28;20070;-61
2022/09/24 12:47:56;;;;;;;2.45;2.00;;;17.40;80.60;;;;;;4999000;28;20049;-59
2022/09/24 12:50:26;;;;;;;1.95;1.85;;;17.50;80.60;;;;;;4996867;28;20046;-58
2022/09/24 12:52:53;;;;;;;2.03;1.83;;;17.50;80.30;;;;;;4997178;28;20033;-61
2022/09/24 12:55:25;;;;;;;2.38;2.17;;;17.50;80.30;;;;;;4998533;28;20442;-61
2022/09/24 12:57:59;;;;;;;2.17;1.98;;;17.50;80.30;;;;;;4998966;28;20640;-60
2022/09/24 13:00:30;;;;;;;2.03;1.77;;;17.50;80.50;;;;;;4993809;28;20049;-60
2022/09/24 13:02:57;;;;;;;2.55;1.90;;;17.60;80.00;;;;;;4994270;28;20036;-59
2022/09/24 13:05:26;;;;;;;1.80;1.52;;;17.50;80.20;;;;;;4993686;28;20034;-61
2022/09/24 13:08:06;;;;;;;2.28;1.83;;;17.60;80.30;;;;;;4998797;28;20093;-60
2022/09/24 13:10:37;;;;;;;1.80;1.70;;;17.50;80.00;;;;;;4994489;28;20048;-59
2022/09/24 13:13:21;;;;;;;2.10;1.90;;;17.50;80.10;;;;;;4994450;28;20523;-59
2022/09/24 13:16:02;;;;;;;1.80;1.70;;;17.60;80.70;;;;;;4994649;28;20053;-59
2022/09/24 13:18:28;;;;;;;1.58;1.48;;;17.50;80.40;;;;;;4995631;28;20030;-59
2022/09/24 13:21:04;;;;;;;1.60;1.50;;;17.60;80.10;;;;;;4997421;28;20034;-60
2022/09/24 13:23:36;;;;;;;2.13;1.80;;;17.60;79.20;;;;;;4996383;28;20119;-59